sensor_id;sensor_type;location;lat;lon;timestamp;temperature;humidity
29241;DHT22;16268;49.880;8.648;2023-04-25T00:00:35;10.00;99.90
29241;DHT22;16268;49.880;8.648;2023-04-25T00:03:01;10.00;99.90
29241;DHT22;16268;49.880;8.648;2023-04-25T00:05:27;10.00;99.90
29241;DHT22;16268;49.880;8.648;2023-04-25T00:07:52;9.90;99.90
29241;DHT22;16268;49.880;8.648;2023-04-25T00:10:19;9.90;99.90
29241;DHT22;16268;49.880;8.648;2023-04-25T00:12:45;9.90;99.90
29241;DHT22;16268;49.880;8.648;2023-04-25T00:15:11;9.90;99.90
29241;DHT22;16268;49.880;8.648;2023-04-25T00:17:37;9.90;99.90
29241;DHT22;16268;49.880;8.648;2023-04-25T00:20:04;9.90;99.90
29241;DHT22;16268;49.880;8.648;2023-04-25T00:22:30;9.90;99.90
29241;DHT22;16268;49.880;8.648;2023-04-25T00:24:59;9.80;99.90
29241;DHT22;16268;49.880;8.648;2023-04-25T00:27:26;9.80;99.90
29241;DHT22;16268;49.880;8.648;2023-04-25T00:29:52;9.80;99.90
29241;DHT22;16268;49.880;8.648;2023-04-25T00:32:17;9.80;99.90
29241;DHT22;16268;49.880;8.648;2023-04-25T00:34:43;9.80;99.90
29241;DHT22;16268;49.880;8.648;2023-04-25T00:37:08;9.80;99.90
29241;DHT22;16268;49.880;8.648;2023-04-25T00:39:35;9.80;99.90
29241;DHT22;16268;49.880;8.648;2023-04-25T00:42:01;9.80;99.90
29241;DHT22;16268;49.880;8.648;2023-04-25T00:44:29;9.80;99.90
29241;DHT22;16268;49.880;8.648;2023-04-25T00:46:55;9.90;99.90
29241;DHT22;16268;49.880;8.648;2023-04-25T00:49:21;9.90;99.90
29241;DHT22;16268;49.880;8.648;2023-04-25T00:51:46;10.00;99.90
29241;DHT22;16268;49.880;8.648;2023-04-25T00:54:12;10.00;99.90
29241;DHT22;16268;49.880;8.648;2023-04-25T00:56:39;10.00;99.90
29241;DHT22;16268;49.880;8.648;2023-04-25T00:59:05;10.00;99.90
29241;DHT22;16268;49.880;8.648;2023-04-25T01:01:30;10.00;99.90
29241;DHT22;16268;49.880;8.648;2023-04-25T01:03:58;10.00;99.90
29241;DHT22;16268;49.880;8.648;2023-04-25T01:06:24;10.00;99.90
29241;DHT22;16268;49.880;8.648;2023-04-25T01:08:49;10.00;99.90
29241;DHT22;16268;49.880;8.648;2023-04-25T01:11:16;10.00;99.90
29241;DHT22;16268;49.880;8.648;2023-04-25T01:13:41;10.00;99.90
29241;DHT22;16268;49.880;8.648;2023-04-25T01:16:07;10.00;99.90
29241;DHT22;16268;49.880;8.648;2023-04-25T01:18:33;10.00;99.90
29241;DHT22;16268;49.880;8.648;2023-04-25T01:21:12;10.00;99.90
29241;DHT22;16268;49.880;8.648;2023-04-25T01:23:42;10.00;99.90
29241;DHT22;16268;49.880;8.648;2023-04-25T01:26:09;10.00;99.90
29241;DHT22;16268;49.880;8.648;2023-04-25T01:28:36;9.90;99.90
29241;DHT22;16268;49.880;8.648;2023-04-25T01:31:02;9.80;99.90
29241;DHT22;16268;49.880;8.648;2023-04-25T01:33:29;9.80;99.90
29241;DHT22;16268;49.880;8.648;2023-04-25T01:35:55;9.80;99.90
29241;DHT22;16268;49.880;8.648;2023-04-25T01:38:20;9.80;99.90
29241;DHT22;16268;49.880;8.648;2023-04-25T01:40:46;9.80;99.90
29241;DHT22;16268;49.880;8.648;2023-04-25T01:43:12;9.70;99.90
29241;DHT22;16268;49.880;8.648;2023-04-25T01:45:40;9.70;99.90
29241;DHT22;16268;49.880;8.648;2023-04-25T01:48:10;9.70;99.90
29241;DHT22;16268;49.880;8.648;2023-04-25T01:50:37;9.80;99.90
29241;DHT22;16268;49.880;8.648;2023-04-25T01:53:02;9.80;99.90
29241;DHT22;16268;49.880;8.648;2023-04-25T01:55:29;9.80;99.90
29241;DHT22;16268;49.880;8.648;2023-04-25T01:57:54;9.80;99.90
29241;DHT22;16268;49.880;8.648;2023-04-25T02:00:20;9.70;99.90
29241;DHT22;16268;49.880;8.648;2023-04-25T02:02:46;9.70;99.90
29241;DHT22;16268;49.880;8.648;2023-04-25T02:05:11;9.80;99.90
29241;DHT22;16268;49.880;8.648;2023-04-25T02:07:38;9.80;99.90
29241;DHT22;16268;49.880;8.648;2023-04-25T02:10:06;9.80;99.90
29241;DHT22;16268;49.880;8.648;2023-04-25T02:12:32;9.80;99.90
29241;DHT22;16268;49.880;8.648;2023-04-25T02:14:57;9.80;99.90
29241;DHT22;16268;49.880;8.648;2023-04-25T02:17:23;9.70;99.90
29241;DHT22;16268;49.880;8.648;2023-04-25T02:19:48;9.70;99.90
29241;DHT22;16268;49.880;8.648;2023-04-25T02:22:15;9.60;99.90
29241;DHT22;16268;49.880;8.648;2023-04-25T02:24:41;9.60;99.90
29241;DHT22;16268;49.880;8.648;2023-04-25T02:27:06;9.60;99.90
29241;DHT22;16268;49.880;8.648;2023-04-25T02:29:33;9.60;99.90
29241;DHT22;16268;49.880;8.648;2023-04-25T02:31:58;9.70;99.90
29241;DHT22;16268;49.880;8.648;2023-04-25T02:34:24;9.70;99.90
29241;DHT22;16268;49.880;8.648;2023-04-25T02:36:49;9.70;99.90
29241;DHT22;16268;49.880;8.648;2023-04-25T02:39:17;9.60;99.90
29241;DHT22;16268;49.880;8.648;2023-04-25T02:41:43;9.60;99.90
29241;DHT22;16268;49.880;8.648;2023-04-25T02:44:09;9.60;99.90
29241;DHT22;16268;49.880;8.648;2023-04-25T02:46:35;9.60;99.90
29241;DHT22;16268;49.880;8.648;2023-04-25T02:49:00;9.50;99.90
29241;DHT22;16268;49.880;8.648;2023-04-25T02:51:26;9.40;99.90
29241;DHT22;16268;49.880;8.648;2023-04-25T02:53:51;9.40;99.90
29241;DHT22;16268;49.880;8.648;2023-04-25T02:56:17;9.40;99.90
29241;DHT22;16268;49.880;8.648;2023-04-25T02:58:43;9.40;99.90
29241;DHT22;16268;49.880;8.648;2023-04-25T03:01:09;9.30;99.90
29241;DHT22;16268;49.880;8.648;2023-04-25T03:03:34;9.40;99.90
29241;DHT22;16268;49.880;8.648;2023-04-25T03:06:00;9.40;99.90
29241;DHT22;16268;49.880;8.648;2023-04-25T03:08:25;9.40;99.90
29241;DHT22;16268;49.880;8.648;2023-04-25T03:10:54;9.30;99.90
29241;DHT22;16268;49.880;8.648;2023-04-25T03:13:20;9.30;99.90
29241;DHT22;16268;49.880;8.648;2023-04-25T03:15:46;9.40;99.90
29241;DHT22;16268;49.880;8.648;2023-04-25T03:18:11;9.30;99.90
29241;DHT22;16268;49.880;8.648;2023-04-25T03:20:37;9.30;99.90
29241;DHT22;16268;49.880;8.648;2023-04-25T03:23:04;9.40;99.90
29241;DHT22;16268;49.880;8.648;2023-04-25T03:25:30;9.40;99.90
29241;DHT22;16268;49.880;8.648;2023-04-25T03:27:56;9.30;99.90
29241;DHT22;16268;49.880;8.648;2023-04-25T03:30:22;9.30;99.90
29241;DHT22;16268;49.880;8.648;2023-04-25T03:32:47;9.30;99.90
29241;DHT22;16268;49.880;8.648;2023-04-25T03:35:13;9.30;99.90
29241;DHT22;16268;49.880;8.648;2023-04-25T03:37:38;9.40;99.90
29241;DHT22;16268;49.880;8.648;2023-04-25T03:40:08;9.40;99.90
29241;DHT22;16268;49.880;8.648;2023-04-25T03:42:34;9.30;99.90
29241;DHT22;16268;49.880;8.648;2023-04-25T03:44:59;9.20;99.90
29241;DHT22;16268;49.880;8.648;2023-04-25T03:47:25;9.20;99.90
29241;DHT22;16268;49.880;8.648;2023-04-25T03:49:50;9.10;99.90
29241;DHT22;16268;49.880;8.648;2023-04-25T03:52:17;9.10;99.90
29241;DHT22;16268;49.880;8.648;2023-04-25T03:54:42;9.10;99.90
29241;DHT22;16268;49.880;8.648;2023-04-25T03:57:11;9.00;99.90
29241;DHT22;16268;49.880;8.648;2023-04-25T03:59:36;9.00;99.90
29241;DHT22;16268;49.880;8.648;2023-04-25T04:02:02;9.10;99.90
29241;DHT22;16268;49.880;8.648;2023-04-25T04:04:27;9.10;99.90
29241;DHT22;16268;49.880;8.648;2023-04-25T04:06:53;9.10;99.90
29241;DHT22;16268;49.880;8.648;2023-04-25T04:09:18;9.10;99.90
29241;DHT22;16268;49.880;8.648;2023-04-25T04:11:48;9.20;99.90
29241;DHT22;16268;49.880;8.648;2023-04-25T04:14:14;9.20;99.90
29241;DHT22;16268;49.880;8.648;2023-04-25T04:16:39;9.20;99.90
29241;DHT22;16268;49.880;8.648;2023-04-25T04:19:05;9.20;99.90
29241;DHT22;16268;49.880;8.648;2023-04-25T04:21:30;9.20;99.90
29241;DHT22;16268;49.880;8.648;2023-04-25T04:23:57;9.30;99.90
29241;DHT22;16268;49.880;8.648;2023-04-25T04:26:23;9.30;99.90
29241;DHT22;16268;49.880;8.648;2023-04-25T04:28:51;9.30;99.90
29241;DHT22;16268;49.880;8.648;2023-04-25T04:31:22;9.30;99.90
29241;DHT22;16268;49.880;8.648;2023-04-25T04:33:48;9.30;99.90
29241;DHT22;16268;49.880;8.648;2023-04-25T04:36:13;9.30;99.90
29241;DHT22;16268;49.880;8.648;2023-04-25T04:38:39;9.30;99.90
29241;DHT22;16268;49.880;8.648;2023-04-25T04:41:05;9.30;99.90
29241;DHT22;16268;49.880;8.648;2023-04-25T04:43:31;9.30;99.90
29241;DHT22;16268;49.880;8.648;2023-04-25T04:46:00;9.30;99.90
29241;DHT22;16268;49.880;8.648;2023-04-25T04:48:25;9.40;99.90
29241;DHT22;16268;49.880;8.648;2023-04-25T04:50:51;9.30;99.90
29241;DHT22;16268;49.880;8.648;2023-04-25T04:53:17;9.40;99.90
29241;DHT22;16268;49.880;8.648;2023-04-25T04:55:42;9.30;99.90
29241;DHT22;16268;49.880;8.648;2023-04-25T04:58:08;9.30;99.90
29241;DHT22;16268;49.880;8.648;2023-04-25T05:00:33;9.30;99.90
29241;DHT22;16268;49.880;8.648;2023-04-25T05:02:59;9.30;99.90
29241;DHT22;16268;49.880;8.648;2023-04-25T05:05:25;9.20;99.90
29241;DHT22;16268;49.880;8.648;2023-04-25T05:07:51;9.20;99.90
29241;DHT22;16268;49.880;8.648;2023-04-25T05:10:18;9.30;99.90
29241;DHT22;16268;49.880;8.648;2023-04-25T05:12:44;9.40;99.90
29241;DHT22;16268;49.880;8.648;2023-04-25T05:15:10;9.30;99.90
29241;DHT22;16268;49.880;8.648;2023-04-25T05:17:36;9.30;99.90
29241;DHT22;16268;49.880;8.648;2023-04-25T05:20:01;9.30;99.90
29241;DHT22;16268;49.880;8.648;2023-04-25T05:22:28;9.40;99.90
29241;DHT22;16268;49.880;8.648;2023-04-25T05:24:53;9.30;99.90
29241;DHT22;16268;49.880;8.648;2023-04-25T05:27:19;9.30;99.90
29241;DHT22;16268;49.880;8.648;2023-04-25T05:29:45;9.40;99.90
29241;DHT22;16268;49.880;8.648;2023-04-25T05:32:10;9.20;99.90
29241;DHT22;16268;49.880;8.648;2023-04-25T05:34:36;9.30;99.90
29241;DHT22;16268;49.880;8.648;2023-04-25T05:37:02;9.40;99.90
29241;DHT22;16268;49.880;8.648;2023-04-25T05:39:28;9.40;99.90
29241;DHT22;16268;49.880;8.648;2023-04-25T05:41:53;9.40;99.90
29241;DHT22;16268;49.880;8.648;2023-04-25T05:44:19;9.40;99.90
29241;DHT22;16268;49.880;8.648;2023-04-25T05:46:45;9.50;99.90
29241;DHT22;16268;49.880;8.648;2023-04-25T05:49:10;9.50;99.90
29241;DHT22;16268;49.880;8.648;2023-04-25T05:51:36;9.50;99.90
29241;DHT22;16268;49.880;8.648;2023-04-25T05:54:01;9.50;99.90
29241;DHT22;16268;49.880;8.648;2023-04-25T05:56:27;9.70;99.90
29241;DHT22;16268;49.880;8.648;2023-04-25T05:58:53;10.00;99.90
29241;DHT22;16268;49.880;8.648;2023-04-25T06:01:18;10.10;99.90
29241;DHT22;16268;49.880;8.648;2023-04-25T06:03:47;10.10;99.90
29241;DHT22;16268;49.880;8.648;2023-04-25T06:06:13;10.30;99.90
29241;DHT22;16268;49.880;8.648;2023-04-25T06:08:39;10.10;99.90
29241;DHT22;16268;49.880;8.648;2023-04-25T06:11:05;10.30;99.90
29241;DHT22;16268;49.880;8.648;2023-04-25T06:13:31;10.30;99.90
29241;DHT22;16268;49.880;8.648;2023-04-25T06:15:57;10.20;99.90
29241;DHT22;16268;49.880;8.648;2023-04-25T06:18:22;10.10;99.90
29241;DHT22;16268;49.880;8.648;2023-04-25T06:20:48;10.10;99.90
29241;DHT22;16268;49.880;8.648;2023-04-25T06:23:13;9.90;99.90
29241;DHT22;16268;49.880;8.648;2023-04-25T06:25:39;9.90;99.90
29241;DHT22;16268;49.880;8.648;2023-04-25T06:28:04;9.90;99.90
29241;DHT22;16268;49.880;8.648;2023-04-25T06:30:30;10.00;99.90
29241;DHT22;16268;49.880;8.648;2023-04-25T06:32:56;10.10;99.90
29241;DHT22;16268;49.880;8.648;2023-04-25T06:35:21;10.50;99.90
29241;DHT22;16268;49.880;8.648;2023-04-25T06:37:47;11.30;99.90
29241;DHT22;16268;49.880;8.648;2023-04-25T06:40:13;12.00;99.90
29241;DHT22;16268;49.880;8.648;2023-04-25T06:42:38;12.20;99.90
29241;DHT22;16268;49.880;8.648;2023-04-25T06:45:04;12.50;99.90
29241;DHT22;16268;49.880;8.648;2023-04-25T06:47:30;12.90;99.90
29241;DHT22;16268;49.880;8.648;2023-04-25T06:49:55;13.10;99.90
29241;DHT22;16268;49.880;8.648;2023-04-25T06:52:21;12.90;99.90
29241;DHT22;16268;49.880;8.648;2023-04-25T06:54:46;12.70;99.90
29241;DHT22;16268;49.880;8.648;2023-04-25T06:57:13;12.20;99.90
29241;DHT22;16268;49.880;8.648;2023-04-25T06:59:38;11.90;99.90
29241;DHT22;16268;49.880;8.648;2023-04-25T07:02:04;12.00;99.90
29241;DHT22;16268;49.880;8.648;2023-04-25T07:04:29;12.40;99.90
29241;DHT22;16268;49.880;8.648;2023-04-25T07:06:56;12.70;99.90
29241;DHT22;16268;49.880;8.648;2023-04-25T07:09:22;12.50;99.90
29241;DHT22;16268;49.880;8.648;2023-04-25T07:11:47;12.60;99.90
29241;DHT22;16268;49.880;8.648;2023-04-25T07:14:13;13.10;99.90
29241;DHT22;16268;49.880;8.648;2023-04-25T07:16:38;13.30;99.90
29241;DHT22;16268;49.880;8.648;2023-04-25T07:19:04;13.60;99.90
29241;DHT22;16268;49.880;8.648;2023-04-25T07:21:30;13.30;99.90
29241;DHT22;16268;49.880;8.648;2023-04-25T07:23:56;13.30;99.90
29241;DHT22;16268;49.880;8.648;2023-04-25T07:26:22;13.10;99.90
29241;DHT22;16268;49.880;8.648;2023-04-25T07:28:47;12.90;99.90
29241;DHT22;16268;49.880;8.648;2023-04-25T07:31:16;13.10;99.90
29241;DHT22;16268;49.880;8.648;2023-04-25T07:33:46;12.90;99.90
29241;DHT22;16268;49.880;8.648;2023-04-25T07:36:12;12.80;99.90
29241;DHT22;16268;49.880;8.648;2023-04-25T07:38:38;12.90;99.90
29241;DHT22;16268;49.880;8.648;2023-04-25T07:41:04;12.90;99.90
29241;DHT22;16268;49.880;8.648;2023-04-25T07:43:30;13.00;99.90
29241;DHT22;16268;49.880;8.648;2023-04-25T07:45:56;12.90;99.90
29241;DHT22;16268;49.880;8.648;2023-04-25T07:48:21;13.00;99.90
29241;DHT22;16268;49.880;8.648;2023-04-25T07:50:47;13.20;99.90
29241;DHT22;16268;49.880;8.648;2023-04-25T07:53:12;13.40;99.90
29241;DHT22;16268;49.880;8.648;2023-04-25T07:55:38;13.60;99.90
29241;DHT22;16268;49.880;8.648;2023-04-25T07:58:06;13.70;99.90
29241;DHT22;16268;49.880;8.648;2023-04-25T08:00:32;13.70;99.90
29241;DHT22;16268;49.880;8.648;2023-04-25T08:02:57;13.70;99.90
29241;DHT22;16268;49.880;8.648;2023-04-25T08:05:23;13.80;99.90
29241;DHT22;16268;49.880;8.648;2023-04-25T08:07:51;13.90;99.90
29241;DHT22;16268;49.880;8.648;2023-04-25T08:10:17;14.40;99.90
29241;DHT22;16268;49.880;8.648;2023-04-25T08:12:43;14.70;99.90
29241;DHT22;16268;49.880;8.648;2023-04-25T08:15:09;14.60;99.90
29241;DHT22;16268;49.880;8.648;2023-04-25T08:17:35;15.00;99.90
29241;DHT22;16268;49.880;8.648;2023-04-25T08:20:00;15.40;99.90
29241;DHT22;16268;49.880;8.648;2023-04-25T08:22:26;16.50;99.90
29241;DHT22;16268;49.880;8.648;2023-04-25T08:24:52;17.00;99.90
29241;DHT22;16268;49.880;8.648;2023-04-25T08:27:20;17.30;99.90
29241;DHT22;16268;49.880;8.648;2023-04-25T08:29:46;17.60;97.20
29241;DHT22;16268;49.880;8.648;2023-04-25T08:32:11;16.90;97.90
29241;DHT22;16268;49.880;8.648;2023-04-25T08:34:37;16.80;96.50
29241;DHT22;16268;49.880;8.648;2023-04-25T08:37:04;17.00;96.90
29241;DHT22;16268;49.880;8.648;2023-04-25T08:39:31;17.60;94.80
29241;DHT22;16268;49.880;8.648;2023-04-25T08:41:56;18.10;94.60
29241;DHT22;16268;49.880;8.648;2023-04-25T08:44:22;18.00;92.90
29241;DHT22;16268;49.880;8.648;2023-04-25T08:46:49;18.10;93.80
29241;DHT22;16268;49.880;8.648;2023-04-25T08:49:17;18.20;92.80
29241;DHT22;16268;49.880;8.648;2023-04-25T08:51:46;17.30;93.60
29241;DHT22;16268;49.880;8.648;2023-04-25T08:54:13;16.60;93.70
29241;DHT22;16268;49.880;8.648;2023-04-25T08:56:47;17.10;96.00
29241;DHT22;16268;49.880;8.648;2023-04-25T08:59:13;17.20;93.50
29241;DHT22;16268;49.880;8.648;2023-04-25T09:01:39;17.00;95.00
29241;DHT22;16268;49.880;8.648;2023-04-25T09:04:05;16.50;95.50
29241;DHT22;16268;49.880;8.648;2023-04-25T09:06:31;16.60;95.00
29241;DHT22;16268;49.880;8.648;2023-04-25T09:09:07;16.90;95.10
29241;DHT22;16268;49.880;8.648;2023-04-25T09:11:34;16.80;96.30
29241;DHT22;16268;49.880;8.648;2023-04-25T09:14:17;16.80;96.30
29241;DHT22;16268;49.880;8.648;2023-04-25T09:19:27;16.80;94.90
29241;DHT22;16268;49.880;8.648;2023-04-25T09:21:59;16.50;95.30
29241;DHT22;16268;49.880;8.648;2023-04-25T09:24:43;16.00;93.60
29241;DHT22;16268;49.880;8.648;2023-04-25T09:27:12;15.90;95.20
29241;DHT22;16268;49.880;8.648;2023-04-25T09:29:42;16.00;94.50
29241;DHT22;16268;49.880;8.648;2023-04-25T09:34:43;16.80;92.60
29241;DHT22;16268;49.880;8.648;2023-04-25T09:37:10;17.10;92.70
29241;DHT22;16268;49.880;8.648;2023-04-25T09:39:37;16.70;92.30
29241;DHT22;16268;49.880;8.648;2023-04-25T09:42:03;16.40;94.20
29241;DHT22;16268;49.880;8.648;2023-04-25T09:44:29;16.40;94.00
29241;DHT22;16268;49.880;8.648;2023-04-25T09:46:55;15.90;95.20
29241;DHT22;16268;49.880;8.648;2023-04-25T09:49:20;15.70;95.30
29241;DHT22;16268;49.880;8.648;2023-04-25T09:51:57;15.50;96.40
29241;DHT22;16268;49.880;8.648;2023-04-25T09:54:24;15.20;97.90
29241;DHT22;16268;49.880;8.648;2023-04-25T09:56:52;15.00;98.90
29241;DHT22;16268;49.880;8.648;2023-04-25T09:59:20;14.30;99.30
29241;DHT22;16268;49.880;8.648;2023-04-25T10:01:48;14.10;99.90
29241;DHT22;16268;49.880;8.648;2023-04-25T10:04:19;14.10;99.90
29241;DHT22;16268;49.880;8.648;2023-04-25T10:06:48;14.10;99.90
29241;DHT22;16268;49.880;8.648;2023-04-25T10:09:15;13.90;99.90
29241;DHT22;16268;49.880;8.648;2023-04-25T10:11:41;13.80;99.90
29241;DHT22;16268;49.880;8.648;2023-04-25T10:14:06;13.80;99.90
29241;DHT22;16268;49.880;8.648;2023-04-25T10:16:32;13.60;99.90
29241;DHT22;16268;49.880;8.648;2023-04-25T10:18:58;13.70;99.90
29241;DHT22;16268;49.880;8.648;2023-04-25T10:21:24;13.90;99.90
29241;DHT22;16268;49.880;8.648;2023-04-25T10:23:52;13.50;99.90
29241;DHT22;16268;49.880;8.648;2023-04-25T10:26:18;13.50;99.90
29241;DHT22;16268;49.880;8.648;2023-04-25T10:29:01;13.40;99.90
29241;DHT22;16268;49.880;8.648;2023-04-25T10:31:29;13.50;99.90
29241;DHT22;16268;49.880;8.648;2023-04-25T10:33:56;13.60;99.90
29241;DHT22;16268;49.880;8.648;2023-04-25T10:36:23;13.60;99.90
29241;DHT22;16268;49.880;8.648;2023-04-25T10:38:50;13.80;99.90
29241;DHT22;16268;49.880;8.648;2023-04-25T10:41:20;14.10;99.90
29241;DHT22;16268;49.880;8.648;2023-04-25T10:43:47;14.00;99.90
29241;DHT22;16268;49.880;8.648;2023-04-25T10:46:26;14.00;99.90
29241;DHT22;16268;49.880;8.648;2023-04-25T10:48:57;14.40;99.90
29241;DHT22;16268;49.880;8.648;2023-04-25T10:51:24;14.50;99.90
29241;DHT22;16268;49.880;8.648;2023-04-25T10:54:04;14.70;99.50
29241;DHT22;16268;49.880;8.648;2023-04-25T10:56:37;14.80;99.50
29241;DHT22;16268;49.880;8.648;2023-04-25T10:59:09;14.90;98.70
29241;DHT22;16268;49.880;8.648;2023-04-25T11:01:43;14.60;98.10
29241;DHT22;16268;49.880;8.648;2023-04-25T11:04:28;14.50;99.90
29241;DHT22;16268;49.880;8.648;2023-04-25T11:09:35;13.80;99.90
29241;DHT22;16268;49.880;8.648;2023-04-25T11:12:01;14.40;99.90
29241;DHT22;16268;49.880;8.648;2023-04-25T11:14:27;14.80;99.90
29241;DHT22;16268;49.880;8.648;2023-04-25T11:16:54;15.10;99.90
29241;DHT22;16268;49.880;8.648;2023-04-25T11:19:21;15.40;97.90
29241;DHT22;16268;49.880;8.648;2023-04-25T11:21:47;15.80;97.00
29241;DHT22;16268;49.880;8.648;2023-04-25T11:24:12;16.00;96.00
29241;DHT22;16268;49.880;8.648;2023-04-25T11:26:41;16.20;95.50
29241;DHT22;16268;49.880;8.648;2023-04-25T11:29:06;16.30;94.60
29241;DHT22;16268;49.880;8.648;2023-04-25T11:31:32;15.90;94.80
29241;DHT22;16268;49.880;8.648;2023-04-25T11:33:58;15.50;96.00
29241;DHT22;16268;49.880;8.648;2023-04-25T11:36:24;15.30;97.50
29241;DHT22;16268;49.880;8.648;2023-04-25T11:38:51;15.50;95.60
29241;DHT22;16268;49.880;8.648;2023-04-25T11:41:18;15.40;96.30
29241;DHT22;16268;49.880;8.648;2023-04-25T11:43:44;15.30;96.60
29241;DHT22;16268;49.880;8.648;2023-04-25T11:46:09;15.20;95.90
29241;DHT22;16268;49.880;8.648;2023-04-25T11:48:39;14.90;97.20
29241;DHT22;16268;49.880;8.648;2023-04-25T11:51:05;14.90;97.70
29241;DHT22;16268;49.880;8.648;2023-04-25T11:53:30;14.70;98.80
29241;DHT22;16268;49.880;8.648;2023-04-25T11:55:56;14.70;98.40
29241;DHT22;16268;49.880;8.648;2023-04-25T11:58:22;14.40;98.80
29241;DHT22;16268;49.880;8.648;2023-04-25T12:00:48;14.60;99.20
29241;DHT22;16268;49.880;8.648;2023-04-25T12:03:14;14.70;99.50
29241;DHT22;16268;49.880;8.648;2023-04-25T12:05:39;14.80;97.90
29241;DHT22;16268;49.880;8.648;2023-04-25T12:08:12;15.10;97.20
29241;DHT22;16268;49.880;8.648;2023-04-25T12:10:39;15.20;95.90
29241;DHT22;16268;49.880;8.648;2023-04-25T12:13:25;14.80;95.40
29241;DHT22;16268;49.880;8.648;2023-04-25T12:15:52;14.40;97.60
29241;DHT22;16268;49.880;8.648;2023-04-25T12:18:20;14.40;97.90
29241;DHT22;16268;49.880;8.648;2023-04-25T12:20:46;14.40;98.40
29241;DHT22;16268;49.880;8.648;2023-04-25T12:23:12;14.60;98.40
29241;DHT22;16268;49.880;8.648;2023-04-25T12:25:39;14.30;97.50
29241;DHT22;16268;49.880;8.648;2023-04-25T12:28:17;14.20;98.00
29241;DHT22;16268;49.880;8.648;2023-04-25T12:30:59;14.40;97.80
29241;DHT22;16268;49.880;8.648;2023-04-25T12:33:31;14.50;98.50
29241;DHT22;16268;49.880;8.648;2023-04-25T12:35:57;14.70;97.60
29241;DHT22;16268;49.880;8.648;2023-04-25T12:38:27;14.70;97.10
29241;DHT22;16268;49.880;8.648;2023-04-25T12:40:54;14.60;97.70
29241;DHT22;16268;49.880;8.648;2023-04-25T12:43:20;14.70;97.80
29241;DHT22;16268;49.880;8.648;2023-04-25T12:45:49;14.50;97.60
29241;DHT22;16268;49.880;8.648;2023-04-25T12:48:16;14.60;97.50
29241;DHT22;16268;49.880;8.648;2023-04-25T12:50:42;14.70;98.00
29241;DHT22;16268;49.880;8.648;2023-04-25T12:53:08;15.00;97.80
29241;DHT22;16268;49.880;8.648;2023-04-25T12:55:34;14.90;96.20
29241;DHT22;16268;49.880;8.648;2023-04-25T12:58:00;14.70;96.90
29241;DHT22;16268;49.880;8.648;2023-04-25T13:00:25;15.00;95.40
29241;DHT22;16268;49.880;8.648;2023-04-25T13:02:51;15.00;95.60
29241;DHT22;16268;49.880;8.648;2023-04-25T13:05:17;15.10;94.80
29241;DHT22;16268;49.880;8.648;2023-04-25T13:07:43;15.00;95.70
29241;DHT22;16268;49.880;8.648;2023-04-25T13:10:08;15.10;95.40
29241;DHT22;16268;49.880;8.648;2023-04-25T13:12:34;15.70;93.30
29241;DHT22;16268;49.880;8.648;2023-04-25T13:14:59;15.80;92.30
29241;DHT22;16268;49.880;8.648;2023-04-25T13:17:25;16.00;93.20
29241;DHT22;16268;49.880;8.648;2023-04-25T13:19:50;15.50;91.80
29241;DHT22;16268;49.880;8.648;2023-04-25T13:22:16;15.50;91.80
29241;DHT22;16268;49.880;8.648;2023-04-25T13:24:45;15.50;91.50
29241;DHT22;16268;49.880;8.648;2023-04-25T13:27:12;15.10;92.00
29241;DHT22;16268;49.880;8.648;2023-04-25T13:29:37;14.90;92.90
29241;DHT22;16268;49.880;8.648;2023-04-25T13:32:06;14.70;93.60
29241;DHT22;16268;49.880;8.648;2023-04-25T13:34:32;14.90;93.20
29241;DHT22;16268;49.880;8.648;2023-04-25T13:36:58;14.70;93.20
29241;DHT22;16268;49.880;8.648;2023-04-25T13:39:23;14.50;92.90
29241;DHT22;16268;49.880;8.648;2023-04-25T13:41:49;14.50;92.80
29241;DHT22;16268;49.880;8.648;2023-04-25T13:44:15;14.50;93.60
29241;DHT22;16268;49.880;8.648;2023-04-25T13:46:40;14.50;93.70
29241;DHT22;16268;49.880;8.648;2023-04-25T13:49:06;14.40;93.10
29241;DHT22;16268;49.880;8.648;2023-04-25T13:51:31;14.30;92.90
29241;DHT22;16268;49.880;8.648;2023-04-25T13:53:57;14.20;92.00
29241;DHT22;16268;49.880;8.648;2023-04-25T13:56:23;14.30;92.40
29241;DHT22;16268;49.880;8.648;2023-04-25T13:58:50;14.10;92.80
29241;DHT22;16268;49.880;8.648;2023-04-25T14:01:17;14.30;93.30
29241;DHT22;16268;49.880;8.648;2023-04-25T14:03:42;14.40;94.10
29241;DHT22;16268;49.880;8.648;2023-04-25T14:06:08;14.40;92.60
29241;DHT22;16268;49.880;8.648;2023-04-25T14:08:34;14.70;91.80
29241;DHT22;16268;49.880;8.648;2023-04-25T14:11:00;14.60;91.90
29241;DHT22;16268;49.880;8.648;2023-04-25T14:13:26;14.70;91.50
29241;DHT22;16268;49.880;8.648;2023-04-25T14:15:52;14.70;91.80
29241;DHT22;16268;49.880;8.648;2023-04-25T14:18:18;14.80;90.60
29241;DHT22;16268;49.880;8.648;2023-04-25T14:20:44;14.60;90.20
29241;DHT22;16268;49.880;8.648;2023-04-25T14:23:10;14.70;91.80
29241;DHT22;16268;49.880;8.648;2023-04-25T14:25:35;14.70;91.60
29241;DHT22;16268;49.880;8.648;2023-04-25T14:28:01;14.50;91.80
29241;DHT22;16268;49.880;8.648;2023-04-25T14:30:27;14.60;91.30
29241;DHT22;16268;49.880;8.648;2023-04-25T14:32:54;14.40;91.20
29241;DHT22;16268;49.880;8.648;2023-04-25T14:35:19;14.30;91.80
29241;DHT22;16268;49.880;8.648;2023-04-25T14:37:45;14.50;92.70
29241;DHT22;16268;49.880;8.648;2023-04-25T14:40:12;14.60;92.30
29241;DHT22;16268;49.880;8.648;2023-04-25T14:42:39;14.70;91.50
29241;DHT22;16268;49.880;8.648;2023-04-25T14:45:06;14.60;91.70
29241;DHT22;16268;49.880;8.648;2023-04-25T14:47:33;14.70;92.70
29241;DHT22;16268;49.880;8.648;2023-04-25T14:49:58;14.50;91.90
29241;DHT22;16268;49.880;8.648;2023-04-25T14:52:24;14.20;92.00
29241;DHT22;16268;49.880;8.648;2023-04-25T14:54:50;14.10;91.70
29241;DHT22;16268;49.880;8.648;2023-04-25T14:57:16;14.10;92.40
29241;DHT22;16268;49.880;8.648;2023-04-25T14:59:42;14.10;91.50
29241;DHT22;16268;49.880;8.648;2023-04-25T15:02:07;14.00;91.70
29241;DHT22;16268;49.880;8.648;2023-04-25T15:04:33;14.10;91.60
29241;DHT22;16268;49.880;8.648;2023-04-25T15:06:59;14.30;91.60
29241;DHT22;16268;49.880;8.648;2023-04-25T15:09:24;14.10;90.20
29241;DHT22;16268;49.880;8.648;2023-04-25T15:11:50;14.20;90.90
29241;DHT22;16268;49.880;8.648;2023-04-25T15:14:17;14.40;91.30
29241;DHT22;16268;49.880;8.648;2023-04-25T15:16:43;14.40;90.50
29241;DHT22;16268;49.880;8.648;2023-04-25T15:19:08;14.20;90.30
29241;DHT22;16268;49.880;8.648;2023-04-25T15:21:34;14.10;90.60
29241;DHT22;16268;49.880;8.648;2023-04-25T15:24:00;14.00;90.20
29241;DHT22;16268;49.880;8.648;2023-04-25T15:26:27;14.10;91.00
29241;DHT22;16268;49.880;8.648;2023-04-25T15:28:52;14.10;90.20
29241;DHT22;16268;49.880;8.648;2023-04-25T15:31:18;14.00;91.00
29241;DHT22;16268;49.880;8.648;2023-04-25T15:33:44;13.70;90.10
29241;DHT22;16268;49.880;8.648;2023-04-25T15:36:09;13.60;91.10
29241;DHT22;16268;49.880;8.648;2023-04-25T15:38:35;13.50;91.00